Tokuyo Maru No.15 — JD2184 — position and weather

sailwx.info

Track history (hours):
 
Tides and Currents Weather Stations Pressure Air Temp Water Temp Dewpoint Dewpoint Depression Visibility Wind Speed Wind Dir Waves Ship Positions

Tokuyo Maru No.15

Last reported at 2015-Jan-08 06:09 UTC. Time now 2015-Jan-26 02:22 UTC.
Position N 34°04' E 135°00'.
Warning: this ship's position is 17 days out of date.

Length 66 m; draft 4.5 m.

Type: Tanker. MMSI: 431402034.

Date/timePositionNaut miles runAvg speedWind from/ knotsBaromVisibWave heightAir tempDewpointWater temp
2015-Jan-08 06:09N 34°04' E 135°00'813.3
2015-Jan-08 05:33N 34°12' E 134°60'1411.7
2015-Jan-08 04:22N 34°25' E 135°06'712.7
2015-Jan-08 03:51N 34°29' E 135°13'7 0.9
2015-Jan-07 20:29N 34°33' E 135°19'0 0.1
2015-Jan-07 19:33N 34°33' E 135°19'0 0.0
2015-Jan-07 18:31N 34°33' E 135°19'0 0.0
2015-Jan-07 17:29N 34°33' E 135°19'1 0.8
2015-Jan-07 16:33N 34°32' E 135°18'1211.3
2015-Jan-07 15:31N 34°25' E 135°07'1210.9
2015-Jan-07 14:25N 34°15' E 134°59'1011.7
2015-Jan-07 13:33N 34°05' E 135°00'  
2015-Jan-03 06:33N 35°20' E 139°43'1111.5
2015-Jan-03 05:33N 35°29' E 139°51'3 0.5
2015-Jan-02 23:07N 35°29' E 139°55'1 1.2
2015-Jan-02 22:31N 35°29' E 139°54'0 0.0
2015-Jan-02 21:31N 35°29' E 139°54'0 0.0
2015-Jan-02 20:31N 35°29' E 139°54'0 0.0
2015-Jan-02 19:31N 35°29' E 139°54'0 0.0
2015-Jan-02 18:31N 35°29' E 139°54'0 0.0
2015-Jan-02 17:28N 35°29' E 139°54'0 0.0
2015-Jan-02 16:25N 35°29' E 139°54'0 0.0
2015-Jan-02 15:31N 35°29' E 139°54'0 0.0
2015-Jan-02 14:28N 35°29' E 139°54'0 0.0
2015-Jan-02 13:31N 35°29' E 139°54'0 0.0
2015-Jan-02 12:04N 35°29' E 139°54'0 0.0
2015-Jan-02 10:29N 35°29' E 139°54'1010.7
2015-Jan-02 09:33N 35°22' E 139°45'  
2014-Dec-30 06:23N 35°15' E 139°46'1012.1
2014-Dec-30 05:34N 35°24' E 139°43'11 1.3
2014-Dec-29 21:25N 35°29' E 139°55'0 0.0
2014-Dec-29 19:31N 35°29' E 139°55'0 0.0
2014-Dec-29 18:25N 35°29' E 139°55'0 0.0
2014-Dec-29 17:22N 35°29' E 139°55'4 5.0
2014-Dec-29 16:33N 35°27' E 139°50'1110.8
2014-Dec-29 15:33N 35°17' E 139°45'  
Track history (hours):
 
Tides and Currents Weather Stations Pressure Air Temp Water Temp Dewpoint Dewpoint Depression Visibility Wind Speed Wind Dir Waves Ship Positions

Tokuyo Maru No.15

Last reported at 2015-Jan-08 06:09 UTC. Time now 2015-Jan-26 02:22 UTC.
Position N 34°04' E 135°00'.
Warning: this ship's position is 17 days out of date.

Length 66 m; draft 4.5 m.

Type: Tanker. MMSI: 431402034.

Date/timePositionNaut miles runAvg speedWind from/ knotsBaromVisibWave heightAir tempDewpointWater temp
2015-Jan-08 06:09N 34°04' E 135°00'813.3
2015-Jan-08 05:33N 34°12' E 134°60'1411.7
2015-Jan-08 04:22N 34°25' E 135°06'712.7
2015-Jan-08 03:51N 34°29' E 135°13'7 0.9
2015-Jan-07 20:29N 34°33' E 135°19'0 0.1
2015-Jan-07 19:33N 34°33' E 135°19'0 0.0
2015-Jan-07 18:31N 34°33' E 135°19'0 0.0
2015-Jan-07 17:29N 34°33' E 135°19'1 0.8
2015-Jan-07 16:33N 34°32' E 135°18'1211.3
2015-Jan-07 15:31N 34°25' E 135°07'1210.9
2015-Jan-07 14:25N 34°15' E 134°59'1011.7
2015-Jan-07 13:33N 34°05' E 135°00'  
2015-Jan-03 06:33N 35°20' E 139°43'1111.5
2015-Jan-03 05:33N 35°29' E 139°51'3 0.5
2015-Jan-02 23:07N 35°29' E 139°55'1 1.2
2015-Jan-02 22:31N 35°29' E 139°54'0 0.0
2015-Jan-02 21:31N 35°29' E 139°54'0 0.0
2015-Jan-02 20:31N 35°29' E 139°54'0 0.0
2015-Jan-02 19:31N 35°29' E 139°54'0 0.0
2015-Jan-02 18:31N 35°29' E 139°54'0 0.0
2015-Jan-02 17:28N 35°29' E 139°54'0 0.0
2015-Jan-02 16:25N 35°29' E 139°54'0 0.0
2015-Jan-02 15:31N 35°29' E 139°54'0 0.0
2015-Jan-02 14:28N 35°29' E 139°54'0 0.0
2015-Jan-02 13:31N 35°29' E 139°54'0 0.0
2015-Jan-02 12:04N 35°29' E 139°54'0 0.0
2015-Jan-02 10:29N 35°29' E 139°54'1010.7
2015-Jan-02 09:33N 35°22' E 139°45'  
2014-Dec-30 06:23N 35°15' E 139°46'1012.1
2014-Dec-30 05:34N 35°24' E 139°43'11 1.3
2014-Dec-29 21:25N 35°29' E 139°55'0 0.0
2014-Dec-29 19:31N 35°29' E 139°55'0 0.0
2014-Dec-29 18:25N 35°29' E 139°55'0 0.0
2014-Dec-29 17:22N 35°29' E 139°55'4 5.0
2014-Dec-29 16:33N 35°27' E 139°50'1110.8
2014-Dec-29 15:33N 35°17' E 139°45'  

Dump ship's entire track history